createdAt,value
2018-09-06T00:00:53.993Z,99752.41
2018-09-06T00:02:29.307Z,99709.09
2018-09-06T00:04:06.586Z,99702.45
2018-09-06T00:05:42.788Z,99652.76
2018-09-06T00:07:18.704Z,99613.18
2018-09-06T00:08:54.217Z,99566.33
2018-09-06T00:10:36.395Z,99585.42
2018-09-06T00:12:11.722Z,99599.50
2018-09-06T00:13:47.231Z,99595.06
2018-09-06T00:15:23.372Z,99582.70
2018-09-06T00:16:59.833Z,99591.59
2018-09-06T00:18:35.361Z,99611.55
2018-09-06T00:20:11.413Z,99608.50
2018-09-06T00:21:49.486Z,99602.31
2018-09-06T00:23:25.202Z,99611.55
2018-09-06T00:25:00.557Z,99648.04
2018-09-06T00:26:35.834Z,99679.02
2018-09-06T00:28:11.376Z,99676.03
2018-09-06T00:29:48.584Z,99666.30
2018-09-06T00:31:24.117Z,99644.57
2018-09-06T00:32:59.628Z,99628.19
2018-09-06T00:34:35.315Z,99618.81
2018-09-06T00:36:11.286Z,99617.59
2018-09-06T00:37:47.965Z,99570.01
2018-09-06T00:39:25.218Z,99588.86
2018-09-06T00:41:00.695Z,99608.70
2018-09-06T00:42:36.473Z,99608.81
2018-09-06T00:44:12.000Z,99641.62
2018-09-06T00:45:47.836Z,99650.86
2018-09-06T00:47:23.283Z,99661.09
2018-09-06T00:48:58.907Z,99664.30
2018-09-06T00:50:39.138Z,99628.29
2018-09-06T00:52:14.854Z,99624.85
2018-09-06T00:53:51.631Z,99619.92
2018-09-06T00:55:27.452Z,99623.71
2018-09-06T00:57:07.054Z,99642.70
2018-09-06T00:58:42.780Z,99636.41
2018-09-06T01:00:20.077Z,99629.78
2018-09-06T01:01:58.407Z,99601.42
2018-09-06T01:03:36.295Z,99591.81
2018-09-06T01:05:14.655Z,99629.89
2018-09-06T01:06:50.415Z,99609.66
2018-09-06T01:08:26.140Z,99612.73
2018-09-06T01:10:01.801Z,99584.88
2018-09-06T01:11:38.071Z,99561.72
2018-09-06T01:13:13.958Z,99528.94
2018-09-06T01:14:50.449Z,99534.83
2018-09-06T01:16:42.675Z,99549.02
2018-09-06T01:18:26.518Z,99535.22
2018-09-06T01:20:02.692Z,99553.09
2018-09-06T01:21:38.000Z,99538.30
2018-09-06T01:23:13.419Z,99519.81
2018-09-06T01:24:49.100Z,99522.52
2018-09-06T01:26:24.840Z,99487.87
2018-09-06T01:28:00.255Z,99475.55
2018-09-06T01:29:36.103Z,99467.16
2018-09-06T01:31:11.830Z,99431.72
2018-09-06T01:32:47.224Z,99404.85
2018-09-06T01:34:22.779Z,99436.64
2018-09-06T01:36:03.471Z,99447.47
2018-09-06T01:37:38.957Z,99524.84
2018-09-06T01:39:14.553Z,99554.79
2018-09-06T01:40:52.309Z,99557.36
2018-09-06T01:42:27.987Z,99604.31
2018-09-06T01:44:03.503Z,99673.59
2018-09-06T01:45:38.900Z,99670.02
2018-09-06T01:47:14.357Z,99700.23
2018-09-06T01:48:50.081Z,99641.66
2018-09-06T01:50:25.469Z,99668.88
2018-09-06T01:52:00.863Z,99811.22
2018-09-06T01:53:36.157Z,99952.86
2018-09-06T01:55:11.999Z,100059.94
2018-09-06T01:56:47.680Z,100137.78
2018-09-06T01:58:23.084Z,100177.02
2018-09-06T01:59:58.907Z,100163.27
2018-09-06T02:01:34.585Z,100151.25
2018-09-06T02:03:10.024Z,100144.22
2018-09-06T02:04:45.399Z,100128.63
2018-09-06T02:06:20.773Z,100102.89
2018-09-06T02:07:56.577Z,100083.86
2018-09-06T02:09:32.029Z,100032.71
2018-09-06T02:11:07.351Z,100034.45
2018-09-06T02:12:42.842Z,100034.45
2018-09-06T02:14:18.282Z,100116.36
2018-09-06T02:15:53.899Z,100083.86
2018-09-06T02:17:29.274Z,100049.66
2018-09-06T02:19:04.850Z,100081.28
2018-09-06T02:20:40.596Z,100089.28
2018-09-06T02:22:16.198Z,100083.50
2018-09-06T02:23:51.538Z,100049.27
2018-09-06T02:25:27.041Z,100058.27
2018-09-06T02:27:02.868Z,100028.02
2018-09-06T02:28:38.283Z,100016.39
2018-09-06T02:30:15.033Z,99969.44
2018-09-06T02:31:51.296Z,99904.63
2018-09-06T02:33:27.142Z,99874.45
2018-09-06T02:35:02.473Z,99865.10
2018-09-06T02:36:37.863Z,99891.38
2018-09-06T02:38:13.221Z,99866.45
2018-09-06T02:39:49.062Z,99878.52
2018-09-06T02:41:24.653Z,99866.94
2018-09-06T02:43:00.171Z,99836.42
2018-09-06T02:44:36.380Z,99825.72
2018-09-06T02:46:12.386Z,99825.23
2018-09-06T02:47:56.803Z,99836.42
2018-09-06T02:49:38.181Z,99767.22
2018-09-06T02:51:21.499Z,99700.27
2018-09-06T02:52:57.717Z,99643.43
2018-09-06T02:54:33.786Z,99598.69
2018-09-06T02:56:09.315Z,99566.84
2018-09-06T02:57:44.675Z,99539.88
2018-09-06T02:59:20.006Z,99546.02
2018-09-06T03:00:55.486Z,99560.69
2018-09-06T03:02:30.910Z,99576.69
2018-09-06T03:04:06.313Z,99570.89
2018-09-06T03:05:42.116Z,99554.14
2018-09-06T03:07:17.419Z,99532.35
2018-09-06T03:08:52.757Z,99480.64
2018-09-06T03:10:31.307Z,99521.73
2018-09-06T03:12:08.387Z,99539.98
2018-09-06T03:13:43.792Z,99561.66
2018-09-06T03:15:21.004Z,99572.25
2018-09-06T03:16:57.177Z,99520.03
2018-09-06T03:18:32.450Z,99457.58
2018-09-06T03:20:07.681Z,99396.52
2018-09-06T03:21:42.882Z,99355.52
2018-09-06T03:23:18.534Z,99213.88
2018-09-06T03:24:53.825Z,99051.28
2018-09-06T03:26:29.193Z,98987.67
2018-09-06T03:28:05.089Z,98872.83
2018-09-06T03:29:40.904Z,98818.72
2018-09-06T03:31:16.519Z,98796.64
2018-09-06T03:32:51.826Z,98795.78
2018-09-06T03:34:29.460Z,98790.02
2018-09-06T03:36:07.740Z,98830.13
2018-09-06T03:37:43.108Z,98849.65
2018-09-06T03:39:18.346Z,98811.72
2018-09-06T03:40:53.749Z,98806.09
2018-09-06T03:42:29.307Z,98821.05
2018-09-06T03:44:04.858Z,98826.70
2018-09-06T03:45:42.253Z,98857.59
2018-09-06T03:47:17.598Z,98897.86
2018-09-06T03:48:53.265Z,98975.96
2018-09-06T03:50:28.870Z,99001.66
2018-09-06T03:52:04.313Z,98990.21
2018-09-06T03:53:39.543Z,98989.72
2018-09-06T03:55:15.682Z,99049.42
2018-09-06T03:56:50.975Z,99080.77
2018-09-06T03:58:27.415Z,99108.66
2018-09-06T04:00:07.252Z,99064.03
2018-09-06T04:01:52.184Z,98950.14
2018-09-06T04:03:34.018Z,98892.45
2018-09-06T04:05:16.062Z,98899.09
2018-09-06T04:06:51.577Z,98975.45
2018-09-06T04:08:32.493Z,98993.50
2018-09-06T04:10:08.780Z,99079.63
2018-09-06T04:11:44.080Z,99086.39
2018-09-06T04:13:19.679Z,99151.41
2018-09-06T04:14:55.360Z,99156.19
2018-09-06T04:16:31.178Z,99103.23
2018-09-06T04:18:06.463Z,99022.01
2018-09-06T04:19:42.092Z,98919.56
2018-09-06T04:21:17.302Z,98810.13
2018-09-06T04:22:53.719Z,98759.94
2018-09-06T04:24:29.022Z,98764.36
2018-09-06T04:26:05.407Z,98738.84
2018-09-06T04:27:40.704Z,98697.41
2018-09-06T04:29:15.929Z,98666.59
2018-09-06T04:30:51.321Z,98666.00
2018-09-06T04:32:26.853Z,98711.61
2018-09-06T04:34:02.095Z,98751.24
2018-09-06T04:35:39.174Z,98764.47
2018-09-06T04:37:15.046Z,98764.47
2018-09-06T04:38:54.248Z,98841.75
2018-09-06T04:40:29.459Z,98862.00
2018-09-06T04:42:04.694Z,98819.78
2018-09-06T04:43:41.248Z,98814.88
2018-09-06T04:45:19.121Z,98824.20
2018-09-06T04:46:54.602Z,98979.22
2018-09-06T04:48:30.224Z,99111.17
2018-09-06T04:50:05.834Z,99231.02
2018-09-06T04:51:41.811Z,99280.60
2018-09-06T04:53:17.519Z,99198.44
2018-09-06T04:54:52.760Z,99168.94
2018-09-06T04:56:28.743Z,99180.36
2018-09-06T04:58:03.908Z,99290.06
2018-09-06T04:59:39.125Z,99415.22
2018-09-06T05:01:15.764Z,99538.48
2018-09-06T05:02:53.985Z,99641.36
2018-09-06T05:04:29.675Z,99633.83
2018-09-06T05:06:04.907Z,99696.79
2018-09-06T05:07:40.128Z,99753.17
2018-09-06T05:09:16.186Z,99817.67
2018-09-06T05:10:51.692Z,99845.67
2018-09-06T05:12:26.883Z,99841.61
2018-09-06T05:14:02.464Z,99826.18
2018-09-06T05:15:38.565Z,99821.83
2018-09-06T05:17:13.738Z,99795.95
2018-09-06T05:18:48.963Z,99756.98
2018-09-06T05:20:24.215Z,99728.62
2018-09-06T05:21:59.607Z,99718.44
2018-09-06T05:23:34.763Z,99710.56
2018-09-06T05:25:11.273Z,99712.39
2018-09-06T05:26:46.526Z,99736.73
2018-09-06T05:28:22.001Z,99744.76
2018-09-06T05:29:57.256Z,99745.62
2018-09-06T05:31:32.746Z,99660.12
2018-09-06T05:33:07.603Z,99575.00
2018-09-06T05:34:43.251Z,99447.52
2018-09-06T05:36:18.588Z,99386.80
2018-09-06T05:37:55.416Z,99276.22
2018-09-06T05:39:32.494Z,99150.20
2018-09-06T05:41:08.392Z,99208.59
2018-09-06T05:42:48.321Z,99359.49
2018-09-06T05:44:23.513Z,99476.44
2018-09-06T05:46:02.802Z,99522.00
2018-09-06T05:47:38.616Z,99475.95
2018-09-06T05:49:14.743Z,99495.98
2018-09-06T05:50:49.940Z,99442.32
2018-09-06T05:52:25.093Z,99434.94
2018-09-06T05:54:00.665Z,99453.66
2018-09-06T05:55:39.680Z,99423.46
2018-09-06T05:57:22.602Z,99400.94
2018-09-06T05:59:01.792Z,99331.88
2018-09-06T06:00:46.456Z,99335.83
2018-09-06T06:02:21.862Z,99347.30
2018-09-06T06:03:58.423Z,99312.83
2018-09-06T06:05:33.632Z,99311.58
2018-09-06T06:07:08.843Z,99134.66
2018-09-06T06:08:47.026Z,99094.08
2018-09-06T06:10:22.321Z,99138.72
2018-09-06T06:11:57.604Z,99161.70
2018-09-06T06:13:34.704Z,99174.98
2018-09-06T06:15:10.259Z,99179.80
2018-09-06T06:16:45.609Z,99144.49
2018-09-06T06:18:20.813Z,99118.92
2018-09-06T06:19:56.617Z,99206.07
2018-09-06T06:21:32.653Z,99140.06
2018-09-06T06:23:08.642Z,99107.95
2018-09-06T06:24:43.888Z,99138.09
2018-09-06T06:26:21.505Z,99202.61
2018-09-06T06:27:56.729Z,99162.91
2018-09-06T06:29:31.953Z,99097.52
2018-09-06T06:31:07.420Z,99090.77
2018-09-06T06:32:42.707Z,99163.29
2018-09-06T06:34:18.947Z,99069.63
2018-09-06T06:35:54.397Z,99028.61
2018-09-06T06:37:29.654Z,98997.77
2018-09-06T06:39:07.775Z,99070.22
2018-09-06T06:40:45.295Z,99082.53
2018-09-06T06:42:20.843Z,99226.70
2018-09-06T06:43:56.132Z,99185.16
2018-09-06T06:45:32.168Z,99169.66
2018-09-06T06:47:10.733Z,99079.18
2018-09-06T06:48:45.918Z,99032.39
2018-09-06T06:50:21.333Z,99007.59
2018-09-06T06:51:58.501Z,99002.30
2018-09-06T06:53:35.240Z,99045.19
2018-09-06T06:55:11.053Z,98994.83
2018-09-06T06:56:46.313Z,99069.50
2018-09-06T06:58:22.176Z,99266.66
2018-09-06T06:59:57.486Z,99415.00
2018-09-06T07:01:33.096Z,99439.74
2018-09-06T07:03:14.770Z,99372.55
2018-09-06T07:04:57.893Z,99327.75
2018-09-06T07:06:41.020Z,99185.86
2018-09-06T07:08:21.345Z,99082.50
2018-09-06T07:10:00.890Z,99021.19
2018-09-06T07:11:38.005Z,98974.79
2018-09-06T07:13:13.539Z,98913.55
2018-09-06T07:14:49.574Z,98840.30
2018-09-06T07:16:28.283Z,98795.22
2018-09-06T07:18:05.472Z,98747.05
2018-09-06T07:19:40.809Z,98702.94
2018-09-06T07:21:16.218Z,98671.66
2018-09-06T07:22:53.193Z,98731.35
2018-09-06T07:24:29.626Z,98834.26
2018-09-06T07:26:06.537Z,98917.97
2018-09-06T07:27:42.829Z,98987.79
2018-09-06T07:29:27.821Z,98947.89
2018-09-06T07:31:04.835Z,98861.51
2018-09-06T07:32:40.125Z,98811.67
2018-09-06T07:34:15.394Z,98854.50
2018-09-06T07:35:52.541Z,99039.97
2018-09-06T07:37:28.687Z,99144.16
2018-09-06T07:39:10.483Z,99272.86
2018-09-06T07:40:54.394Z,99274.73
2018-09-06T07:42:38.814Z,99297.72
2018-09-06T07:44:14.192Z,99314.83
2018-09-06T07:45:51.931Z,99434.98
2018-09-06T07:47:34.555Z,99479.31
2018-09-06T07:49:10.230Z,99425.66
2018-09-06T07:50:47.114Z,99267.31
2018-09-06T07:52:23.965Z,99128.03
2018-09-06T07:53:59.515Z,99029.63
2018-09-06T07:55:35.259Z,99002.25
2018-09-06T07:57:12.247Z,99012.45
2018-09-06T07:58:47.783Z,99081.23
2018-09-06T08:00:23.415Z,99261.16
2018-09-06T08:01:59.300Z,99432.91
2018-09-06T08:03:34.715Z,99568.59
2018-09-06T08:05:10.054Z,99643.50
2018-09-06T08:06:46.048Z,99820.51
2018-09-06T08:08:21.319Z,99927.13
2018-09-06T08:09:57.146Z,100011.52
2018-09-06T08:11:32.466Z,100072.41
2018-09-06T08:13:16.754Z,100071.05
2018-09-06T08:14:54.277Z,100058.70
2018-09-06T08:16:29.845Z,100075.21
2018-09-06T08:18:10.457Z,100109.44
2018-09-06T08:19:49.897Z,100049.89
2018-09-06T08:21:27.974Z,100154.00
2018-09-06T08:23:03.558Z,100202.51
2018-09-06T08:24:40.104Z,99995.82
2018-09-06T08:26:17.618Z,99926.55
2018-09-06T08:27:54.607Z,100031.48
2018-09-06T08:29:31.715Z,100081.24
2018-09-06T08:31:07.173Z,100193.75
2018-09-06T08:32:42.467Z,100061.22
2018-09-06T08:34:22.537Z,100070.12
2018-09-06T08:35:59.271Z,100194.62
2018-09-06T08:37:34.507Z,100228.52
2018-09-06T08:39:12.806Z,100253.86
2018-09-06T08:40:50.222Z,100342.89
2018-09-06T08:42:25.474Z,100422.57
2018-09-06T08:44:01.509Z,100447.16
2018-09-06T08:45:37.678Z,100434.66
2018-09-06T08:47:43.690Z,100343.86
2018-09-06T08:49:38.097Z,100179.26
2018-09-06T08:51:20.575Z,100106.75
2018-09-06T08:52:57.045Z,100008.58
2018-09-06T08:54:33.307Z,99940.31
2018-09-06T08:56:08.691Z,99900.66
2018-09-06T08:57:44.565Z,99865.64
2018-09-06T08:59:22.177Z,99974.51
2018-09-06T09:01:04.838Z,100136.24
2018-09-06T09:02:42.500Z,100231.80
2018-09-06T09:04:20.325Z,100190.97
2018-09-06T09:05:56.310Z,100009.16
2018-09-06T09:07:31.808Z,99808.02
2018-09-06T09:09:13.193Z,99683.49
2018-09-06T09:10:51.401Z,99591.24
2018-09-06T09:12:28.243Z,99506.98
2018-09-06T09:14:04.114Z,99442.75
2018-09-06T09:15:43.297Z,99460.08
2018-09-06T09:17:21.113Z,99465.00
2018-09-06T09:18:58.596Z,99505.25
2018-09-06T09:20:35.835Z,99472.39
2018-09-06T09:22:13.615Z,99473.00
2018-09-06T09:23:51.782Z,99425.15
2018-09-06T09:25:28.369Z,99454.43
2018-09-06T09:27:11.977Z,99543.03
2018-09-06T09:28:53.392Z,99585.03
2018-09-06T09:30:41.041Z,99644.45
2018-09-06T09:32:22.483Z,99686.71
2018-09-06T09:33:59.812Z,99849.92
2018-09-06T09:35:35.265Z,99961.00
2018-09-06T09:37:10.811Z,99986.79
2018-09-06T09:38:46.504Z,100042.34
2018-09-06T09:40:28.612Z,100175.73
2018-09-06T09:42:06.397Z,100279.83
2018-09-06T09:43:43.334Z,100272.76
2018-09-06T09:45:21.551Z,100318.13
2018-09-06T09:48:37.411Z,100352.79
2018-09-06T09:51:51.189Z,100310.60
2018-09-06T09:53:27.625Z,100324.91
2018-09-06T09:55:06.550Z,100204.35
2018-09-06T09:56:43.483Z,100162.11
2018-09-06T09:58:24.507Z,100098.97
2018-09-06T10:00:02.239Z,100166.53
2018-09-06T10:02:02.020Z,100144.42
2018-09-06T10:05:38.241Z,100108.45
2018-09-06T10:07:21.528Z,100215.58
2018-09-06T10:09:29.932Z,100313.89
2018-09-06T10:11:07.191Z,100460.81
2018-09-06T10:12:43.473Z,100469.73
2018-09-06T10:14:18.945Z,100475.55
2018-09-06T10:15:56.591Z,100450.58
2018-09-06T10:17:32.053Z,100319.31
2018-09-06T10:19:09.724Z,100172.95
2018-09-06T10:20:45.894Z,100080.16
2018-09-06T10:22:21.913Z,100185.02
2018-09-06T10:25:33.591Z,100278.01
2018-09-06T10:27:08.910Z,100088.06
2018-09-06T10:28:45.187Z,100143.64
2018-09-06T10:30:22.319Z,100170.42
2018-09-06T10:31:58.239Z,100322.02
2018-09-06T10:33:33.591Z,100354.06
2018-09-06T10:35:11.389Z,100260.16
2018-09-06T10:36:49.314Z,100214.80
2018-09-06T10:38:27.529Z,100179.81
2018-09-06T10:40:04.046Z,100106.84
2018-09-06T10:41:39.419Z,100065.84
2018-09-06T10:43:17.291Z,100025.95
2018-09-06T10:44:53.776Z,100030.75
2018-09-06T10:46:30.043Z,100032.59
2018-09-06T10:48:07.717Z,99943.17
2018-09-06T10:49:44.676Z,99985.55
2018-09-06T10:51:23.595Z,100024.30
2018-09-06T10:52:58.831Z,100072.70
2018-09-06T10:54:35.465Z,100171.39
2018-09-06T10:56:11.630Z,100173.22
2018-09-06T10:57:47.892Z,100092.70
2018-09-06T10:59:26.972Z,100151.48
2018-09-06T11:01:09.170Z,100215.50
2018-09-06T11:02:44.542Z,100177.67
2018-09-06T11:04:20.199Z,100234.25
2018-09-06T11:05:56.922Z,100264.44
2018-09-06T11:07:32.434Z,100235.12
2018-09-06T11:09:11.156Z,100173.22
2018-09-06T11:10:47.875Z,100192.00
2018-09-06T11:12:25.592Z,100305.86
2018-09-06T11:14:01.655Z,100307.22
2018-09-06T11:15:37.213Z,100357.05
2018-09-06T11:17:16.325Z,100292.97
2018-09-06T11:18:51.754Z,100366.45
2018-09-06T11:20:26.990Z,100435.97
2018-09-06T11:22:03.653Z,100437.20
2018-09-06T11:23:40.755Z,100313.99
2018-09-06T11:25:15.993Z,100354.95
2018-09-06T11:26:51.783Z,100333.56
2018-09-06T11:28:27.759Z,100239.80
2018-09-06T11:30:05.167Z,100282.44
2018-09-06T11:31:40.769Z,100480.11
2018-09-06T11:33:17.806Z,100582.11
2018-09-06T11:34:56.337Z,100626.72
2018-09-06T11:36:34.077Z,100523.78
2018-09-06T11:38:10.257Z,100411.95
2018-09-06T11:39:45.470Z,100229.92
2018-09-06T11:41:20.718Z,100174.80
2018-09-06T11:42:58.034Z,100320.89
2018-09-06T11:44:37.580Z,100425.39
2018-09-06T11:46:22.354Z,100580.84
2018-09-06T11:48:06.773Z,100757.05
2018-09-06T11:49:42.467Z,100718.63
2018-09-06T11:51:19.603Z,100585.79
2018-09-06T11:52:55.390Z,100573.31
2018-09-06T11:54:30.697Z,100636.70
2018-09-06T11:56:06.665Z,100807.66
2018-09-06T11:57:41.995Z,100867.35
2018-09-06T11:59:18.526Z,100759.77
2018-09-06T12:00:53.978Z,100799.98
2018-09-06T12:02:30.639Z,100856.27
2018-09-06T12:04:06.077Z,100882.17
2018-09-06T12:05:41.701Z,100923.73
2018-09-06T12:07:17.440Z,100975.13
2018-09-06T12:08:55.434Z,100935.75
2018-09-06T12:10:31.640Z,100634.06
2018-09-06T12:12:08.525Z,100468.30
2018-09-06T12:13:44.478Z,100331.61
2018-09-06T12:15:21.562Z,100483.52
2018-09-06T12:16:56.938Z,100620.20
2018-09-06T12:18:32.339Z,100609.16
2018-09-06T12:20:08.421Z,100801.95
2018-09-06T12:21:44.068Z,100889.27
2018-09-06T12:23:20.147Z,100896.55
2018-09-06T12:24:55.517Z,100948.29
2018-09-06T12:26:30.864Z,100815.32
2018-09-06T12:28:07.075Z,100825.61
2018-09-06T12:29:42.481Z,100664.14
2018-09-06T12:31:18.068Z,100559.26
2018-09-06T12:32:53.546Z,100627.86
2018-09-06T12:34:29.519Z,100727.83
2018-09-06T12:36:05.904Z,100777.02
2018-09-06T12:37:41.214Z,100733.66
2018-09-06T12:39:17.314Z,100839.47
2018-09-06T12:40:53.519Z,100718.45
2018-09-06T12:42:30.177Z,100644.48
2018-09-06T12:44:08.675Z,100542.41
2018-09-06T12:45:44.267Z,100535.72
2018-09-06T12:47:21.080Z,100480.02
2018-09-06T12:49:00.254Z,100307.70
2018-09-06T12:50:36.374Z,100523.20
2018-09-06T12:52:15.891Z,100739.39
2018-09-06T12:53:51.696Z,100898.87
2018-09-06T12:55:26.926Z,100977.05
2018-09-06T12:57:04.512Z,101047.67
2018-09-06T12:58:41.210Z,101071.25
2018-09-06T13:00:24.818Z,101052.51
2018-09-06T13:02:03.749Z,101055.23
2018-09-06T13:03:39.643Z,100978.01
2018-09-06T13:05:19.781Z,100966.86
2018-09-06T13:06:59.900Z,100885.97
2018-09-06T13:08:36.534Z,100946.73
2018-09-06T13:10:15.739Z,100847.62
2018-09-06T13:11:54.189Z,100709.59
2018-09-06T13:13:31.477Z,100740.92
2018-09-06T13:15:15.593Z,100680.34
2018-09-06T13:16:53.114Z,100795.42
2018-09-06T13:18:30.236Z,100974.05
2018-09-06T13:20:11.563Z,101072.25
2018-09-06T13:21:47.994Z,100917.71
2018-09-06T13:23:23.438Z,100838.71
2018-09-06T13:24:59.461Z,100734.73
2018-09-06T13:26:36.273Z,100798.53
2018-09-06T13:28:11.667Z,101006.17
2018-09-06T13:29:47.047Z,100999.09
2018-09-06T13:33:12.442Z,100872.68
2018-09-06T13:34:49.904Z,100824.43
2018-09-06T13:36:25.313Z,101015.68
2018-09-06T13:38:02.292Z,101111.78
2018-09-06T13:39:38.613Z,101171.14
2018-09-06T13:41:14.535Z,101190.77
2018-09-06T13:42:50.466Z,101172.02
2018-09-06T13:44:26.731Z,101167.46
2018-09-06T13:46:02.208Z,101171.94
2018-09-06T13:47:39.191Z,101179.13
2018-09-06T13:49:15.342Z,101170.18
2018-09-06T13:50:50.642Z,101132.20
2018-09-06T13:52:31.987Z,101099.62
2018-09-06T13:54:07.862Z,101026.38
2018-09-06T13:55:43.718Z,100927.50
2018-09-06T13:57:23.708Z,100651.31
2018-09-06T13:59:03.197Z,100427.63
2018-09-06T14:00:44.598Z,100384.47
2018-09-06T14:02:20.849Z,100380.39
2018-09-06T14:03:58.874Z,100185.46
2018-09-06T14:05:35.990Z,100091.68
2018-09-06T14:07:15.619Z,100041.05
2018-09-06T14:08:52.639Z,100045.41
2018-09-06T14:10:32.134Z,100056.63
2018-09-06T14:12:08.330Z,100033.32
2018-09-06T14:13:45.244Z,99972.55
2018-09-06T14:15:23.544Z,99928.62
2018-09-06T14:16:58.766Z,99933.55
2018-09-06T14:18:34.520Z,99904.08
2018-09-06T14:20:11.373Z,99919.64
2018-09-06T14:21:47.207Z,99927.27
2018-09-06T14:23:29.025Z,99945.41
2018-09-06T14:25:04.767Z,99964.53
2018-09-06T14:26:42.415Z,99941.36
2018-09-06T14:28:21.037Z,99947.73
2018-09-06T14:29:56.398Z,99937.39
2018-09-06T14:31:32.052Z,99961.44
2018-09-06T14:33:10.008Z,99983.64
2018-09-06T14:34:46.731Z,99988.95
2018-09-06T14:36:32.429Z,99999.69
2018-09-06T14:38:12.097Z,100035.64
2018-09-06T14:39:49.873Z,100154.33
2018-09-06T14:41:28.687Z,100180.53
2018-09-06T14:43:05.781Z,100230.80
2018-09-06T14:44:41.407Z,100206.34
2018-09-06T14:46:17.975Z,100176.56
2018-09-06T14:47:53.210Z,100148.52
2018-09-06T14:49:29.202Z,100137.88
2018-09-06T14:51:06.645Z,100120.19
2018-09-06T14:52:43.615Z,100185.46
2018-09-06T14:54:18.981Z,100262.92
2018-09-06T14:55:55.151Z,100332.36
2018-09-06T14:57:32.563Z,100534.18
2018-09-06T14:59:07.929Z,100721.34
2018-09-06T15:00:43.520Z,100841.03
2018-09-06T15:02:22.165Z,100977.73
2018-09-06T15:03:58.529Z,101097.39
2018-09-06T15:05:37.278Z,101140.36
2018-09-06T15:07:12.511Z,101177.55
2018-09-06T15:08:47.801Z,101238.80
2018-09-06T15:10:23.682Z,101258.52
2018-09-06T15:11:59.565Z,101339.09
2018-09-06T15:13:37.325Z,101358.38
2018-09-06T15:15:14.837Z,101248.72
2018-09-06T15:16:51.581Z,101262.60
2018-09-06T15:18:28.005Z,101357.09
2018-09-06T15:20:03.615Z,101375.47
2018-09-06T15:21:38.838Z,101382.27
2018-09-06T15:23:15.688Z,101505.91
2018-09-06T15:24:54.442Z,101555.17
2018-09-06T15:26:30.564Z,101594.12
2018-09-06T15:28:09.935Z,101648.82
2018-09-06T15:29:46.709Z,101639.00
2018-09-06T15:31:22.530Z,101625.05
2018-09-06T15:32:59.877Z,101548.05
2018-09-06T15:34:37.681Z,101542.23
2018-09-06T15:36:21.671Z,101554.77
2018-09-06T15:37:57.959Z,101505.42
2018-09-06T15:39:34.509Z,101507.67
2018-09-06T15:41:10.230Z,101528.37
2018-09-06T15:42:46.319Z,101480.80
2018-09-06T15:44:22.057Z,101549.33
2018-09-06T15:47:35.363Z,101606.26
2018-09-06T15:49:10.772Z,101535.91
2018-09-06T15:50:46.249Z,101492.38
2018-09-06T15:52:21.598Z,101438.63
2018-09-06T15:53:57.177Z,101381.39
2018-09-06T15:55:32.935Z,101402.33
2018-09-06T15:57:10.976Z,101390.67
2018-09-06T15:58:50.890Z,101338.33
2018-09-06T16:00:26.781Z,101416.73
2018-09-06T16:02:01.986Z,101451.69
2018-09-06T16:03:37.860Z,101399.23
2018-09-06T16:05:14.594Z,101332.48
2018-09-06T16:06:50.260Z,101259.04
2018-09-06T16:08:26.530Z,101238.48
2018-09-06T16:10:03.324Z,101207.61
2018-09-06T16:11:40.149Z,101104.27
2018-09-06T16:13:16.041Z,101075.73
2018-09-06T16:14:52.751Z,101074.25
2018-09-06T16:16:28.490Z,101078.33
2018-09-06T16:18:04.650Z,101093.99
2018-09-06T16:19:41.153Z,101074.37
2018-09-06T16:21:16.546Z,101084.64
2018-09-06T16:22:51.949Z,101119.81
2018-09-06T16:24:27.652Z,101057.83
2018-09-06T16:26:03.553Z,100981.86
2018-09-06T16:27:39.617Z,100869.26
2018-09-06T16:29:14.933Z,100878.67
2018-09-06T16:30:50.689Z,100852.29
2018-09-06T16:32:26.391Z,100936.05
2018-09-06T16:34:01.677Z,100982.20
2018-09-06T16:35:43.123Z,101019.28
2018-09-06T16:37:30.629Z,101104.19
2018-09-06T16:39:15.559Z,101066.58
2018-09-06T16:40:50.985Z,101042.89
2018-09-06T16:42:26.604Z,101016.95
2018-09-06T16:44:03.514Z,100937.40
2018-09-06T16:45:39.815Z,100856.55
2018-09-06T16:47:15.144Z,100815.13
2018-09-06T16:48:50.460Z,100770.41
2018-09-06T16:50:26.517Z,100779.42
2018-09-06T16:52:03.880Z,100764.22
2018-09-06T16:53:39.531Z,100798.14
2018-09-06T16:55:15.090Z,100809.78
2018-09-06T16:56:51.197Z,100795.06
2018-09-06T16:58:28.279Z,100727.07
2018-09-06T17:00:10.024Z,100710.56
2018-09-06T17:01:45.594Z,100741.80
2018-09-06T17:03:21.954Z,100762.73
2018-09-06T17:04:58.422Z,100728.31
2018-09-06T17:06:36.150Z,100735.61
2018-09-06T17:08:11.764Z,100704.30
2018-09-06T17:09:47.293Z,100729.66
2018-09-06T17:11:23.085Z,100726.59
2018-09-06T17:12:59.824Z,100684.20
2018-09-06T17:14:35.269Z,100635.12
2018-09-06T17:16:10.916Z,100640.06
2018-09-06T17:17:49.367Z,100637.36
2018-09-06T17:19:26.676Z,100645.71
2018-09-06T17:21:03.363Z,100610.03
2018-09-06T17:22:46.729Z,100582.89
2018-09-06T17:24:31.001Z,100581.54
2018-09-06T17:26:21.290Z,100586.00
2018-09-06T17:27:58.516Z,100529.81
2018-09-06T17:29:39.832Z,100495.03
2018-09-06T17:31:19.060Z,100446.03
2018-09-06T17:32:55.485Z,100366.18
2018-09-06T17:34:32.274Z,100327.55
2018-09-06T17:36:08.747Z,100295.99
2018-09-06T17:37:44.617Z,100258.16
2018-09-06T17:39:20.251Z,100272.48
2018-09-06T17:40:59.570Z,100233.20
2018-09-06T17:42:35.534Z,100212.80
2018-09-06T17:44:11.359Z,100192.31
2018-09-06T17:45:48.554Z,100213.67
2018-09-06T17:47:25.526Z,100227.39
2018-09-06T17:49:02.283Z,100240.37
2018-09-06T17:50:38.397Z,100276.81
2018-09-06T17:52:14.459Z,100284.85
2018-09-06T17:53:53.029Z,100222.46
2018-09-06T17:55:29.523Z,100223.81
2018-09-06T17:57:09.629Z,100241.72
2018-09-06T17:58:54.917Z,100234.08
2018-09-06T18:00:31.930Z,100251.38
2018-09-06T18:02:08.968Z,100259.03
2018-09-06T18:03:47.452Z,100247.41
2018-09-06T18:05:25.725Z,100159.73
2018-09-06T18:07:01.503Z,100084.98
2018-09-06T18:08:37.186Z,99985.58
2018-09-06T18:10:12.434Z,99933.11
2018-09-06T18:11:54.187Z,99883.69
2018-09-06T18:13:30.825Z,99892.29
2018-09-06T18:15:09.521Z,99891.32
2018-09-06T18:16:49.642Z,99851.34
2018-09-06T18:18:26.556Z,99758.15
2018-09-06T18:20:06.298Z,99682.35
2018-09-06T18:21:43.071Z,99671.77
2018-09-06T18:23:21.675Z,99654.39
2018-09-06T18:24:58.246Z,99637.98
2018-09-06T18:26:35.003Z,99633.92
2018-09-06T18:28:10.397Z,99574.06
2018-09-06T18:29:46.651Z,99552.29
2018-09-06T18:31:26.545Z,99500.45
2018-09-06T18:33:04.966Z,99485.06
2018-09-06T18:34:40.835Z,99516.92
2018-09-06T18:36:19.497Z,99536.41
2018-09-06T18:37:56.276Z,99550.94
2018-09-06T18:39:33.594Z,99545.25
2018-09-06T18:41:10.873Z,99520.00
2018-09-06T18:42:48.330Z,99562.87
2018-09-06T18:44:23.670Z,99600.56
2018-09-06T18:46:00.214Z,99585.52
2018-09-06T18:47:36.898Z,99553.16
2018-09-06T18:49:13.132Z,99563.00
2018-09-06T18:50:49.521Z,99586.86
2018-09-06T18:52:24.966Z,99621.38
2018-09-06T18:54:02.528Z,99665.87